Jan Caribe — V2QD — position and weather

sailwx.info

Track history (hours):
 
Tides and Currents Weather Stations Pressure Air Temp Water Temp Dewpoint Dewpoint Depression Visibility Wind Speed Wind Dir Waves Ship Positions

Jan Caribe

Last reported at 2018-Feb-16 17:45 UTC. Time now 2018-Feb-18 04:39 UTC.
Position N 25°33' W 080°00'.

Length 95 m; draft 3.6 m.

Type: Cargo ship. MMSI: 304010792.

Date/timePositionNaut miles runAvg speedWind from/ knotsBaromVisibWave heightAir tempDewpointWater temp
2018-Feb-16 17:45N 25°33' W 080°00'2 9.4
2018-Feb-16 17:30N 25°36' W 080°01'5 9.7
2018-Feb-16 17:00N 25°41' W 080°01'5 9.0
2018-Feb-16 16:30N 25°45' W 080°01'4 8.6
2018-Feb-16 16:00N 25°49' W 080°01'4 8.6
2018-Feb-16 15:30N 25°54' W 080°01'5 9.0
2018-Feb-16 15:00N 25°58' W 080°03'5 9.5
2018-Feb-16 14:30N 26°03' W 080°04'4 7.2
2018-Feb-16 14:00N 26°05' W 080°07'1 1.6
2018-Feb-16 13:28N 26°04' W 080°07'0 0.0
2018-Feb-16 12:58N 26°04' W 080°07'0 0.0
2018-Feb-16 12:28N 26°04' W 080°07'0 0.0
2018-Feb-16 11:58N 26°04' W 080°07'0 0.0
2018-Feb-16 11:28N 26°04' W 080°07'0 0.0
2018-Feb-16 10:58N 26°04' W 080°07'0 0.0
2018-Feb-16 10:28N 26°04' W 080°07'0 0.0
2018-Feb-16 09:58N 26°04' W 080°07'0 0.0
2018-Feb-16 09:28N 26°04' W 080°07'0 0.0
2018-Feb-16 08:58N 26°04' W 080°07'0 0.0
2018-Feb-16 08:28N 26°04' W 080°07'0 0.6
2018-Feb-16 08:00N 26°05' W 080°07'3 5.9
2018-Feb-16 07:29N 26°06' W 080°04'2 3.7
2018-Feb-16 06:59N 26°08' W 080°03'1 1.3
2018-Feb-16 06:29N 26°07' W 080°03'1 1.5
2018-Feb-16 05:59N 26°08' W 080°04'0 0.5
2018-Feb-16 05:29N 26°08' W 080°04'0 0.1
2018-Feb-16 04:59N 26°08' W 080°04'0 0.0
2018-Feb-16 04:29N 26°08' W 080°04'0 0.0
2018-Feb-16 03:56N 26°08' W 080°04'0 0.0
2018-Feb-16 03:29N 26°08' W 080°04'0 0.0
2018-Feb-16 02:59N 26°08' W 080°04'0 0.0
2018-Feb-16 02:29N 26°08' W 080°04'0 0.1
2018-Feb-16 01:50N 26°08' W 080°04'0 0.0
2018-Feb-16 01:29N 26°08' W 080°04'0 0.0
2018-Feb-16 00:59N 26°08' W 080°04'0 0.0
2018-Feb-16 00:29N 26°08' W 080°04'0 0.0
2018-Feb-15 23:59N 26°08' W 080°04'0 0.0
2018-Feb-15 23:29N 26°08' W 080°04'0 0.0
2018-Feb-15 22:59N 26°08' W 080°04'0 0.0
2018-Feb-15 22:29N 26°08' W 080°04'0 0.0
2018-Feb-15 21:59N 26°08' W 080°04'0 0.0
2018-Feb-15 21:29N 26°08' W 080°04'0 0.0
2018-Feb-15 20:56N 26°08' W 080°04'0 0.0
2018-Feb-15 20:26N 26°08' W 080°04'0 0.1
2018-Feb-15 19:53N 26°08' W 080°04'0 0.0
2018-Feb-15 19:23N 26°08' W 080°04'0 0.1
2018-Feb-15 18:56N 26°08' W 080°04'0 0.1
2018-Feb-15 18:29N 26°08' W 080°04'0 0.1
2018-Feb-15 17:56N 26°08' W 080°04'0 0.0
2018-Feb-15 17:26N 26°08' W 080°04'0 0.0
2018-Feb-15 16:56N 26°08' W 080°04'0 0.0
2018-Feb-15 16:26N 26°08' W 080°04'0 0.0
2018-Feb-15 15:53N 26°08' W 080°04'0 0.0
2018-Feb-15 15:26N 26°08' W 080°04'0 0.0
2018-Feb-15 14:59N 26°08' W 080°04'0 0.1
2018-Feb-15 14:29N 26°08' W 080°04'0 0.0
2018-Feb-15 13:59N 26°08' W 080°04'0 0.0
2018-Feb-15 13:29N 26°08' W 080°04'0 0.0
2018-Feb-15 12:59N 26°08' W 080°04'0 0.0
2018-Feb-15 12:29N 26°08' W 080°04'0 0.0
2018-Feb-15 11:59N 26°08' W 080°04'0 0.0
2018-Feb-15 11:29N 26°08' W 080°04'0 0.0
2018-Feb-15 10:59N 26°08' W 080°04'0 0.0
2018-Feb-15 10:29N 26°08' W 080°04'0 0.0
2018-Feb-15 09:59N 26°08' W 080°04'0 0.0
2018-Feb-15 09:29N 26°08' W 080°04'0 0.0
2018-Feb-15 08:59N 26°08' W 080°04'0 0.0
2018-Feb-15 08:29N 26°08' W 080°04'0 0.0
2018-Feb-15 07:59N 26°08' W 080°04'0 0.0
2018-Feb-15 07:28N 26°08' W 080°04'0 0.0
2018-Feb-15 06:58N 26°08' W 080°04'0 0.0
2018-Feb-15 06:28N 26°08' W 080°04'0 0.0
2018-Feb-15 05:58N 26°08' W 080°04'0 0.1
2018-Feb-15 05:28N 26°08' W 080°04'0 0.0
2018-Feb-15 04:58N 26°08' W 080°04'0 0.0
2018-Feb-15 04:28N 26°08' W 080°04'0 0.0
2018-Feb-15 03:58N 26°08' W 080°04'0 0.1
2018-Feb-15 03:28N 26°08' W 080°04'0 0.0
2018-Feb-15 02:58N 26°08' W 080°04'0 0.0
2018-Feb-15 02:28N 26°08' W 080°04'0 0.0
2018-Feb-15 01:58N 26°08' W 080°04'0 0.1
2018-Feb-15 01:25N 26°08' W 080°04'0 0.0
2018-Feb-15 00:58N 26°08' W 080°04'0 0.0
2018-Feb-15 00:28N 26°08' W 080°04'0 0.0
2018-Feb-14 23:52N 26°08' W 080°04'0 0.0
2018-Feb-14 23:28N 26°08' W 080°04'0 0.0
2018-Feb-14 22:58N 26°08' W 080°04'0 0.0
2018-Feb-14 22:28N 26°08' W 080°04'0 0.0
2018-Feb-14 21:55N 26°08' W 080°04'0 0.2
2018-Feb-14 21:28N 26°08' W 080°04'0 0.1
2018-Feb-14 20:58N 26°08' W 080°04'0 0.0
2018-Feb-14 20:25N 26°08' W 080°04'0 0.0
2018-Feb-14 19:52N 26°08' W 080°04'0 0.0
2018-Feb-14 19:25N 26°08' W 080°04'0 0.1
2018-Feb-14 18:58N 26°08' W 080°04'0 0.0
2018-Feb-14 18:28N 26°08' W 080°04'0 0.0
2018-Feb-14 17:58N 26°08' W 080°04'0 0.0
2018-Feb-14 17:28N 26°08' W 080°04'0 0.0
2018-Feb-14 16:58N 26°08' W 080°04'0 0.0
2018-Feb-14 16:28N 26°08' W 080°04'0 0.0
2018-Feb-14 15:58N 26°08' W 080°04'0 0.0
2018-Feb-14 15:28N 26°08' W 080°04'0 0.0
2018-Feb-14 14:55N 26°08' W 080°04'0 0.0
2018-Feb-14 14:28N 26°08' W 080°04'0 0.0
2018-Feb-14 13:55N 26°08' W 080°04'0 0.0
2018-Feb-14 13:25N 26°08' W 080°04'0 0.0
2018-Feb-14 12:55N 26°08' W 080°04'0 0.0
2018-Feb-14 12:28N 26°08' W 080°04'0 0.0
2018-Feb-14 12:00N 26°08' W 080°04'0 0.1
2018-Feb-14 11:30N 26°08' W 080°04'0 0.0
2018-Feb-14 11:00N 26°08' W 080°04'0 0.0
2018-Feb-14 10:29N 26°08' W 080°04'0 0.0
2018-Feb-14 10:01N 26°08' W 080°04'0 0.0
2018-Feb-14 09:30N 26°08' W 080°04'0 0.0
2018-Feb-14 09:01N 26°08' W 080°04'0 0.0
2018-Feb-14 08:31N 26°08' W 080°04'0 0.0
2018-Feb-14 08:00N 26°08' W 080°04'0 0.0
2018-Feb-14 07:30N 26°08' W 080°04'0 0.0
2018-Feb-14 07:00N 26°08' W 080°04'0 0.0
2018-Feb-14 06:30N 26°08' W 080°04'0 0.0
2018-Feb-14 06:01N 26°08' W 080°04'0 0.0
2018-Feb-14 05:30N 26°08' W 080°04'0 0.0
2018-Feb-14 05:00N 26°08' W 080°04'0 0.0
2018-Feb-14 04:30N 26°08' W 080°04'0 0.1
2018-Feb-14 04:00N 26°08' W 080°04'0 0.0
2018-Feb-14 03:30N 26°08' W 080°04'0 0.0
2018-Feb-14 03:00N 26°08' W 080°04'0 0.0
2018-Feb-14 02:30N 26°08' W 080°04'0 0.1
2018-Feb-14 02:00N 26°08' W 080°04'0 0.0
2018-Feb-14 01:31N 26°08' W 080°04'0 0.0
2018-Feb-14 01:00N 26°08' W 080°04'1 2.4
2018-Feb-14 00:30N 26°07' W 080°05'3 5.8
2018-Feb-14 00:00N 26°05' W 080°07'0 0.5
2018-Feb-13 23:31N 26°04' W 080°07'0 0.0
2018-Feb-13 23:00N 26°04' W 080°07'0 0.0
2018-Feb-13 22:30N 26°04' W 080°07'0 0.0
2018-Feb-13 22:00N 26°04' W 080°07'0 0.0
2018-Feb-13 21:30N 26°04' W 080°07'0 0.0
2018-Feb-13 21:01N 26°04' W 080°07'0 0.0
2018-Feb-13 20:30N 26°04' W 080°07'0 0.0
2018-Feb-13 20:00N 26°04' W 080°07'0 0.0
2018-Feb-13 19:31N 26°04' W 080°07'0 0.0
2018-Feb-13 19:00N 26°04' W 080°07'0 0.0
2018-Feb-13 18:30N 26°04' W 080°07'0 0.0
2018-Feb-13 18:01N 26°04' W 080°07'0 0.1
2018-Feb-13 17:30N 26°04' W 080°07'3 5.9
2018-Feb-13 17:00N 26°06' W 080°04'2 3.1
2018-Feb-13 16:30N 26°07' W 080°03'2 3.1
2018-Feb-13 16:00N 26°05' W 080°03'2 4.9
2018-Feb-13 15:31N 26°04' W 080°00'3 5.3
2018-Feb-13 14:59N 26°03' W 079°57'2 5.1
2018-Feb-13 14:30N 26°03' W 079°55'2 4.7
2018-Feb-13 14:00N 26°02' W 079°52'3 6.1
2018-Feb-13 13:30N 26°01' W 079°49'3 6.9
2018-Feb-13 13:00N 25°60' W 079°45'4 7.2
2018-Feb-13 12:30N 25°59' W 079°42'3 5.4
2018-Feb-13 12:00N 25°57' W 079°40'3 6.6
2018-Feb-13 11:30N 25°53' W 079°40'3 6.7
2018-Feb-13 11:00N 25°50' W 079°40'3 6.7
2018-Feb-13 10:30N 25°46' W 079°40'3 6.7
2018-Feb-13 10:00N 25°43' W 079°40'3 6.6
2018-Feb-13 09:29N 25°40' W 079°40'3 6.6
2018-Feb-13 09:00N 25°37' W 079°40'  
Track history (hours):
 
Tides and Currents Weather Stations Pressure Air Temp Water Temp Dewpoint Dewpoint Depression Visibility Wind Speed Wind Dir Waves Ship Positions

Jan Caribe

Last reported at 2018-Feb-16 17:45 UTC. Time now 2018-Feb-18 04:39 UTC.
Position N 25°33' W 080°00'.

Length 95 m; draft 3.6 m.

Type: Cargo ship. MMSI: 304010792.

Date/timePositionNaut miles runAvg speedWind from/ knotsBaromVisibWave heightAir tempDewpointWater temp
2018-Feb-16 17:45N 25°33' W 080°00'2 9.4
2018-Feb-16 17:30N 25°36' W 080°01'5 9.7
2018-Feb-16 17:00N 25°41' W 080°01'5 9.0
2018-Feb-16 16:30N 25°45' W 080°01'4 8.6
2018-Feb-16 16:00N 25°49' W 080°01'4 8.6
2018-Feb-16 15:30N 25°54' W 080°01'5 9.0
2018-Feb-16 15:00N 25°58' W 080°03'5 9.5
2018-Feb-16 14:30N 26°03' W 080°04'4 7.2
2018-Feb-16 14:00N 26°05' W 080°07'1 1.6
2018-Feb-16 13:28N 26°04' W 080°07'0 0.0
2018-Feb-16 12:58N 26°04' W 080°07'0 0.0
2018-Feb-16 12:28N 26°04' W 080°07'0 0.0
2018-Feb-16 11:58N 26°04' W 080°07'0 0.0
2018-Feb-16 11:28N 26°04' W 080°07'0 0.0
2018-Feb-16 10:58N 26°04' W 080°07'0 0.0
2018-Feb-16 10:28N 26°04' W 080°07'0 0.0
2018-Feb-16 09:58N 26°04' W 080°07'0 0.0
2018-Feb-16 09:28N 26°04' W 080°07'0 0.0
2018-Feb-16 08:58N 26°04' W 080°07'0 0.0
2018-Feb-16 08:28N 26°04' W 080°07'0 0.6
2018-Feb-16 08:00N 26°05' W 080°07'3 5.9
2018-Feb-16 07:29N 26°06' W 080°04'2 3.7
2018-Feb-16 06:59N 26°08' W 080°03'1 1.3
2018-Feb-16 06:29N 26°07' W 080°03'1 1.5
2018-Feb-16 05:59N 26°08' W 080°04'0 0.5
2018-Feb-16 05:29N 26°08' W 080°04'0 0.1
2018-Feb-16 04:59N 26°08' W 080°04'0 0.0
2018-Feb-16 04:29N 26°08' W 080°04'0 0.0
2018-Feb-16 03:56N 26°08' W 080°04'0 0.0
2018-Feb-16 03:29N 26°08' W 080°04'0 0.0
2018-Feb-16 02:59N 26°08' W 080°04'0 0.0
2018-Feb-16 02:29N 26°08' W 080°04'0 0.1
2018-Feb-16 01:50N 26°08' W 080°04'0 0.0
2018-Feb-16 01:29N 26°08' W 080°04'0 0.0
2018-Feb-16 00:59N 26°08' W 080°04'0 0.0
2018-Feb-16 00:29N 26°08' W 080°04'0 0.0
2018-Feb-15 23:59N 26°08' W 080°04'0 0.0
2018-Feb-15 23:29N 26°08' W 080°04'0 0.0
2018-Feb-15 22:59N 26°08' W 080°04'0 0.0
2018-Feb-15 22:29N 26°08' W 080°04'0 0.0
2018-Feb-15 21:59N 26°08' W 080°04'0 0.0
2018-Feb-15 21:29N 26°08' W 080°04'0 0.0
2018-Feb-15 20:56N 26°08' W 080°04'0 0.0
2018-Feb-15 20:26N 26°08' W 080°04'0 0.1
2018-Feb-15 19:53N 26°08' W 080°04'0 0.0
2018-Feb-15 19:23N 26°08' W 080°04'0 0.1
2018-Feb-15 18:56N 26°08' W 080°04'0 0.1
2018-Feb-15 18:29N 26°08' W 080°04'0 0.1
2018-Feb-15 17:56N 26°08' W 080°04'0 0.0
2018-Feb-15 17:26N 26°08' W 080°04'0 0.0
2018-Feb-15 16:56N 26°08' W 080°04'0 0.0
2018-Feb-15 16:26N 26°08' W 080°04'0 0.0
2018-Feb-15 15:53N 26°08' W 080°04'0 0.0
2018-Feb-15 15:26N 26°08' W 080°04'0 0.0
2018-Feb-15 14:59N 26°08' W 080°04'0 0.1
2018-Feb-15 14:29N 26°08' W 080°04'0 0.0
2018-Feb-15 13:59N 26°08' W 080°04'0 0.0
2018-Feb-15 13:29N 26°08' W 080°04'0 0.0
2018-Feb-15 12:59N 26°08' W 080°04'0 0.0
2018-Feb-15 12:29N 26°08' W 080°04'0 0.0
2018-Feb-15 11:59N 26°08' W 080°04'0 0.0
2018-Feb-15 11:29N 26°08' W 080°04'0 0.0
2018-Feb-15 10:59N 26°08' W 080°04'0 0.0
2018-Feb-15 10:29N 26°08' W 080°04'0 0.0
2018-Feb-15 09:59N 26°08' W 080°04'0 0.0
2018-Feb-15 09:29N 26°08' W 080°04'0 0.0
2018-Feb-15 08:59N 26°08' W 080°04'0 0.0
2018-Feb-15 08:29N 26°08' W 080°04'0 0.0
2018-Feb-15 07:59N 26°08' W 080°04'0 0.0
2018-Feb-15 07:28N 26°08' W 080°04'0 0.0
2018-Feb-15 06:58N 26°08' W 080°04'0 0.0
2018-Feb-15 06:28N 26°08' W 080°04'0 0.0
2018-Feb-15 05:58N 26°08' W 080°04'0 0.1
2018-Feb-15 05:28N 26°08' W 080°04'0 0.0
2018-Feb-15 04:58N 26°08' W 080°04'0 0.0
2018-Feb-15 04:28N 26°08' W 080°04'0 0.0
2018-Feb-15 03:58N 26°08' W 080°04'0 0.1
2018-Feb-15 03:28N 26°08' W 080°04'0 0.0
2018-Feb-15 02:58N 26°08' W 080°04'0 0.0
2018-Feb-15 02:28N 26°08' W 080°04'0 0.0
2018-Feb-15 01:58N 26°08' W 080°04'0 0.1
2018-Feb-15 01:25N 26°08' W 080°04'0 0.0
2018-Feb-15 00:58N 26°08' W 080°04'0 0.0
2018-Feb-15 00:28N 26°08' W 080°04'0 0.0
2018-Feb-14 23:52N 26°08' W 080°04'0 0.0
2018-Feb-14 23:28N 26°08' W 080°04'0 0.0
2018-Feb-14 22:58N 26°08' W 080°04'0 0.0
2018-Feb-14 22:28N 26°08' W 080°04'0 0.0
2018-Feb-14 21:55N 26°08' W 080°04'0 0.2
2018-Feb-14 21:28N 26°08' W 080°04'0 0.1
2018-Feb-14 20:58N 26°08' W 080°04'0 0.0
2018-Feb-14 20:25N 26°08' W 080°04'0 0.0
2018-Feb-14 19:52N 26°08' W 080°04'0 0.0
2018-Feb-14 19:25N 26°08' W 080°04'0 0.1
2018-Feb-14 18:58N 26°08' W 080°04'0 0.0
2018-Feb-14 18:28N 26°08' W 080°04'0 0.0
2018-Feb-14 17:58N 26°08' W 080°04'0 0.0
2018-Feb-14 17:28N 26°08' W 080°04'0 0.0
2018-Feb-14 16:58N 26°08' W 080°04'0 0.0
2018-Feb-14 16:28N 26°08' W 080°04'0 0.0
2018-Feb-14 15:58N 26°08' W 080°04'0 0.0
2018-Feb-14 15:28N 26°08' W 080°04'0 0.0
2018-Feb-14 14:55N 26°08' W 080°04'0 0.0
2018-Feb-14 14:28N 26°08' W 080°04'0 0.0
2018-Feb-14 13:55N 26°08' W 080°04'0 0.0
2018-Feb-14 13:25N 26°08' W 080°04'0 0.0
2018-Feb-14 12:55N 26°08' W 080°04'0 0.0
2018-Feb-14 12:28N 26°08' W 080°04'0 0.0
2018-Feb-14 12:00N 26°08' W 080°04'0 0.1
2018-Feb-14 11:30N 26°08' W 080°04'0 0.0
2018-Feb-14 11:00N 26°08' W 080°04'0 0.0
2018-Feb-14 10:29N 26°08' W 080°04'0 0.0
2018-Feb-14 10:01N 26°08' W 080°04'0 0.0
2018-Feb-14 09:30N 26°08' W 080°04'0 0.0
2018-Feb-14 09:01N 26°08' W 080°04'0 0.0
2018-Feb-14 08:31N 26°08' W 080°04'0 0.0
2018-Feb-14 08:00N 26°08' W 080°04'0 0.0
2018-Feb-14 07:30N 26°08' W 080°04'0 0.0
2018-Feb-14 07:00N 26°08' W 080°04'0 0.0
2018-Feb-14 06:30N 26°08' W 080°04'0 0.0
2018-Feb-14 06:01N 26°08' W 080°04'0 0.0
2018-Feb-14 05:30N 26°08' W 080°04'0 0.0
2018-Feb-14 05:00N 26°08' W 080°04'0 0.0
2018-Feb-14 04:30N 26°08' W 080°04'0 0.1
2018-Feb-14 04:00N 26°08' W 080°04'0 0.0
2018-Feb-14 03:30N 26°08' W 080°04'0 0.0
2018-Feb-14 03:00N 26°08' W 080°04'0 0.0
2018-Feb-14 02:30N 26°08' W 080°04'0 0.1
2018-Feb-14 02:00N 26°08' W 080°04'0 0.0
2018-Feb-14 01:31N 26°08' W 080°04'0 0.0
2018-Feb-14 01:00N 26°08' W 080°04'1 2.4
2018-Feb-14 00:30N 26°07' W 080°05'3 5.8
2018-Feb-14 00:00N 26°05' W 080°07'0 0.5
2018-Feb-13 23:31N 26°04' W 080°07'0 0.0
2018-Feb-13 23:00N 26°04' W 080°07'0 0.0
2018-Feb-13 22:30N 26°04' W 080°07'0 0.0
2018-Feb-13 22:00N 26°04' W 080°07'0 0.0
2018-Feb-13 21:30N 26°04' W 080°07'0 0.0
2018-Feb-13 21:01N 26°04' W 080°07'0 0.0
2018-Feb-13 20:30N 26°04' W 080°07'0 0.0
2018-Feb-13 20:00N 26°04' W 080°07'0 0.0
2018-Feb-13 19:31N 26°04' W 080°07'0 0.0
2018-Feb-13 19:00N 26°04' W 080°07'0 0.0
2018-Feb-13 18:30N 26°04' W 080°07'0 0.0
2018-Feb-13 18:01N 26°04' W 080°07'0 0.1
2018-Feb-13 17:30N 26°04' W 080°07'3 5.9
2018-Feb-13 17:00N 26°06' W 080°04'2 3.1
2018-Feb-13 16:30N 26°07' W 080°03'2 3.1
2018-Feb-13 16:00N 26°05' W 080°03'2 4.9
2018-Feb-13 15:31N 26°04' W 080°00'3 5.3
2018-Feb-13 14:59N 26°03' W 079°57'2 5.1
2018-Feb-13 14:30N 26°03' W 079°55'2 4.7
2018-Feb-13 14:00N 26°02' W 079°52'3 6.1
2018-Feb-13 13:30N 26°01' W 079°49'3 6.9
2018-Feb-13 13:00N 25°60' W 079°45'4 7.2
2018-Feb-13 12:30N 25°59' W 079°42'3 5.4
2018-Feb-13 12:00N 25°57' W 079°40'3 6.6
2018-Feb-13 11:30N 25°53' W 079°40'3 6.7
2018-Feb-13 11:00N 25°50' W 079°40'3 6.7
2018-Feb-13 10:30N 25°46' W 079°40'3 6.7
2018-Feb-13 10:00N 25°43' W 079°40'3 6.6
2018-Feb-13 09:29N 25°40' W 079°40'3 6.6
2018-Feb-13 09:00N 25°37' W 079°40'  

Dump ship's entire track history